createdAt,value
2018-03-07T00:00:58.475Z,71.52
2018-03-07T00:03:28.267Z,72.24
2018-03-07T00:05:58.748Z,72.02
2018-03-07T00:08:28.450Z,71.84
2018-03-07T00:10:58.173Z,72.04
2018-03-07T00:13:27.946Z,71.94
2018-03-07T00:15:57.664Z,72.07
2018-03-07T00:18:27.402Z,72.09
2018-03-07T00:20:58.004Z,72.01
2018-03-07T00:23:27.702Z,72.14
2018-03-07T00:25:57.480Z,72.05
2018-03-07T00:28:27.505Z,71.97
2018-03-07T00:30:57.224Z,72.32
2018-03-07T00:33:26.931Z,72.50
2018-03-07T00:35:56.682Z,72.32
2018-03-07T00:38:27.131Z,72.34
2018-03-07T00:40:57.705Z,72.21
2018-03-07T00:43:27.414Z,72.00
2018-03-07T00:45:57.320Z,71.84
2018-03-07T00:48:27.081Z,71.95
2018-03-07T00:50:56.784Z,71.90
2018-03-07T00:53:26.504Z,71.87
2018-03-07T00:55:56.201Z,71.82
2018-03-07T00:58:26.004Z,71.83
2018-03-07T01:00:55.707Z,72.15
2018-03-07T01:03:25.383Z,72.28
2018-03-07T01:05:55.176Z,72.24
2018-03-07T01:08:25.073Z,72.09
2018-03-07T01:10:54.838Z,71.91
2018-03-07T01:13:25.425Z,71.80
2018-03-07T01:15:55.136Z,71.81
2018-03-07T01:18:24.899Z,71.78
2018-03-07T01:20:54.819Z,71.65
2018-03-07T01:23:24.541Z,71.58
2018-03-07T01:25:54.253Z,71.96
2018-03-07T01:28:24.017Z,72.07
2018-03-07T01:30:54.544Z,71.94
2018-03-07T01:33:24.408Z,71.83
2018-03-07T01:35:54.246Z,71.86
2018-03-07T01:38:24.073Z,71.64
2018-03-07T01:40:53.865Z,71.43
2018-03-07T01:43:23.588Z,71.27
2018-03-07T01:45:53.340Z,70.85
2018-03-07T01:48:23.057Z,70.90
2018-03-07T01:50:52.798Z,71.48
2018-03-07T01:53:22.488Z,71.70
2018-03-07T01:55:52.183Z,72.23
2018-03-07T01:58:22.048Z,72.62
2018-03-07T02:00:51.956Z,72.71
2018-03-07T02:03:21.689Z,72.84
2018-03-07T02:05:51.526Z,72.89
2018-03-07T02:08:21.246Z,73.00
2018-03-07T02:10:51.042Z,73.14
2018-03-07T02:13:20.725Z,73.34
2018-03-07T02:15:50.484Z,73.58
2018-03-07T02:18:20.170Z,73.71
2018-03-07T02:20:49.936Z,73.76
2018-03-07T02:23:19.617Z,73.81
2018-03-07T02:25:49.451Z,73.82
2018-03-07T02:28:19.905Z,73.87
2018-03-07T02:30:49.867Z,73.89
2018-03-07T02:33:19.574Z,73.81
2018-03-07T02:35:49.257Z,73.77
2018-03-07T02:38:19.714Z,73.81
2018-03-07T02:40:49.498Z,73.90
2018-03-07T02:43:19.234Z,74.00
2018-03-07T02:45:49.747Z,73.93
2018-03-07T02:48:19.474Z,73.93
2018-03-07T02:50:49.317Z,73.97
2018-03-07T02:53:19.001Z,74.27
2018-03-07T02:55:48.717Z,74.35
2018-03-07T02:58:18.525Z,74.61
2018-03-07T03:00:48.377Z,74.70
2018-03-07T03:03:18.080Z,74.80
2018-03-07T03:05:47.907Z,74.68
2018-03-07T03:08:17.636Z,74.83
2018-03-07T03:10:47.388Z,74.83
2018-03-07T03:13:17.917Z,74.92
2018-03-07T03:15:47.728Z,75.22
2018-03-07T03:18:17.398Z,75.44
2018-03-07T03:20:47.125Z,75.51
2018-03-07T03:23:16.862Z,76.04
2018-03-07T03:25:46.632Z,76.35
2018-03-07T03:28:16.340Z,76.42
2018-03-07T03:30:46.019Z,76.14
2018-03-07T03:33:15.864Z,75.83
2018-03-07T03:35:45.572Z,75.69
2018-03-07T03:38:15.265Z,75.39
2018-03-07T03:40:45.888Z,75.31
2018-03-07T03:43:15.617Z,75.03
2018-03-07T03:45:46.150Z,75.05
2018-03-07T03:48:15.876Z,74.99
2018-03-07T03:50:46.336Z,74.17
2018-03-07T03:53:16.055Z,73.92
2018-03-07T03:55:46.531Z,75.07
2018-03-07T03:58:16.464Z,75.86
2018-03-07T04:00:46.200Z,75.59
2018-03-07T04:03:15.963Z,75.94
2018-03-07T04:05:46.423Z,76.26
2018-03-07T04:08:16.256Z,76.21
2018-03-07T04:10:45.933Z,76.20
2018-03-07T04:13:16.547Z,76.53
2018-03-07T04:15:46.264Z,76.17
2018-03-07T04:18:15.972Z,76.10
2018-03-07T04:20:45.629Z,76.72
2018-03-07T04:23:15.348Z,76.55
2018-03-07T04:25:45.150Z,76.64
2018-03-07T04:28:14.907Z,77.08
2018-03-07T04:30:44.619Z,77.47
2018-03-07T04:33:14.450Z,77.17
2018-03-07T04:35:44.916Z,77.02
2018-03-07T04:38:14.775Z,77.64
2018-03-07T04:40:44.517Z,77.76
2018-03-07T04:43:14.183Z,77.42
2018-03-07T04:45:44.013Z,76.89
2018-03-07T04:48:13.761Z,76.76
2018-03-07T04:50:43.497Z,76.84
2018-03-07T04:53:13.275Z,77.00
2018-03-07T04:55:43.098Z,77.26
2018-03-07T04:58:12.823Z,77.16
2018-03-07T05:00:42.592Z,77.24
2018-03-07T05:03:13.268Z,76.91
2018-03-07T05:05:43.775Z,77.86
2018-03-07T05:08:13.590Z,78.80
2018-03-07T05:10:43.316Z,79.65
2018-03-07T05:13:13.185Z,79.86
2018-03-07T05:15:42.870Z,79.15
2018-03-07T05:18:12.581Z,78.65
2018-03-07T05:20:42.263Z,77.68
2018-03-07T05:23:12.137Z,77.67
2018-03-07T05:25:41.810Z,77.72
2018-03-07T05:28:11.494Z,78.78
2018-03-07T05:30:41.985Z,78.98
2018-03-07T05:33:11.751Z,79.17
2018-03-07T05:35:41.539Z,79.55
2018-03-07T05:38:11.286Z,79.30
2018-03-07T05:40:41.026Z,78.70
2018-03-07T05:43:11.486Z,78.02
2018-03-07T05:45:41.180Z,77.95
2018-03-07T05:48:11.009Z,77.83
2018-03-07T05:50:40.707Z,77.65
2018-03-07T05:53:10.500Z,77.50
2018-03-07T05:55:40.269Z,77.59
2018-03-07T05:58:09.989Z,77.64
2018-03-07T06:00:39.740Z,77.57
2018-03-07T06:03:10.343Z,77.48
2018-03-07T06:05:40.072Z,77.33
2018-03-07T06:08:09.836Z,77.06
2018-03-07T06:10:39.624Z,77.13
2018-03-07T06:13:09.478Z,76.82
2018-03-07T06:15:39.343Z,77.21
2018-03-07T06:18:09.070Z,77.76
2018-03-07T06:20:38.766Z,78.14
2018-03-07T06:23:08.652Z,78.45
2018-03-07T06:25:39.180Z,78.57
2018-03-07T06:28:09.733Z,78.75
2018-03-07T06:30:40.331Z,78.71
2018-03-07T06:33:10.139Z,78.44
2018-03-07T06:35:39.976Z,78.27
2018-03-07T06:38:09.726Z,78.02
2018-03-07T06:40:39.680Z,77.47
2018-03-07T06:43:10.183Z,77.37
2018-03-07T06:45:40.089Z,77.74
2018-03-07T06:48:09.965Z,77.76
2018-03-07T06:50:40.544Z,77.26
2018-03-07T06:53:10.243Z,77.37
2018-03-07T06:55:39.988Z,77.54
2018-03-07T07:01:09.576Z,77.43
2018-03-07T07:03:39.270Z,77.20
2018-03-07T07:06:09.101Z,76.63
2018-03-07T07:08:38.883Z,75.94
2018-03-07T07:11:09.356Z,75.51
2018-03-07T07:13:39.168Z,74.84
2018-03-07T07:16:08.906Z,74.03
2018-03-07T07:18:38.645Z,73.64
2018-03-07T07:21:08.449Z,73.53
2018-03-07T07:23:38.253Z,73.66
2018-03-07T07:26:08.032Z,73.81
2018-03-07T07:28:37.738Z,73.70
2018-03-07T07:31:07.527Z,73.67
2018-03-07T07:33:37.329Z,73.52
2018-03-07T07:36:07.090Z,73.65
2018-03-07T07:38:36.924Z,73.53
2018-03-07T07:41:06.661Z,73.57
2018-03-07T07:43:36.395Z,73.46
2018-03-07T07:46:07.512Z,73.17
2018-03-07T07:48:37.336Z,73.20
2018-03-07T07:51:07.096Z,72.74
2018-03-07T07:53:37.616Z,73.04
2018-03-07T07:56:07.393Z,72.62
2018-03-07T07:58:37.156Z,71.20
2018-03-07T08:01:06.939Z,70.21
2018-03-07T08:03:36.696Z,70.05
2018-03-07T08:06:06.477Z,69.27
2018-03-07T08:08:36.336Z,69.09
2018-03-07T08:11:06.174Z,69.15
2018-03-07T08:13:36.635Z,68.71
2018-03-07T08:16:07.582Z,68.59
2018-03-07T08:18:37.817Z,68.78
2018-03-07T08:21:08.356Z,68.58
2018-03-07T08:23:38.211Z,68.15
2018-03-07T08:26:07.898Z,67.92
2018-03-07T08:28:37.694Z,68.02
2018-03-07T08:31:07.564Z,67.64
2018-03-07T08:33:38.161Z,67.54
2018-03-07T08:36:08.000Z,67.20
2018-03-07T08:38:37.897Z,66.96
2018-03-07T08:41:07.685Z,66.31
2018-03-07T08:43:38.190Z,66.26
2018-03-07T08:46:08.071Z,66.12
2018-03-07T08:48:37.966Z,65.71
2018-03-07T08:51:08.545Z,65.12
2018-03-07T08:53:38.296Z,64.40
2018-03-07T08:56:08.065Z,64.98
2018-03-07T08:58:37.816Z,64.49
2018-03-07T09:01:07.605Z,63.91
2018-03-07T09:03:37.403Z,64.01
2018-03-07T09:06:07.230Z,63.95
2018-03-07T09:08:36.970Z,63.68
2018-03-07T09:11:06.765Z,63.27
2018-03-07T09:13:36.495Z,62.91
2018-03-07T09:16:07.027Z,62.63
2018-03-07T09:18:36.766Z,62.54
2018-03-07T09:21:07.363Z,62.12
2018-03-07T09:23:37.181Z,61.67
2018-03-07T09:26:07.012Z,61.18
2018-03-07T09:28:36.781Z,60.67
2018-03-07T09:31:07.456Z,60.35
2018-03-07T09:33:37.238Z,59.70
2018-03-07T09:36:07.199Z,59.81
2018-03-07T09:38:36.972Z,59.45
2018-03-07T09:41:06.904Z,58.89
2018-03-07T09:43:36.731Z,58.79
2018-03-07T09:46:06.634Z,58.58
2018-03-07T09:48:36.405Z,58.36
2018-03-07T09:51:06.965Z,57.64
2018-03-07T09:53:36.912Z,57.44
2018-03-07T09:56:06.797Z,57.71
2018-03-07T09:58:36.687Z,57.76
2018-03-07T10:01:06.624Z,58.35
2018-03-07T10:03:37.285Z,58.09
2018-03-07T10:06:07.039Z,57.73
2018-03-07T10:08:36.817Z,57.52
2018-03-07T10:11:06.812Z,57.15
2018-03-07T10:13:36.530Z,57.22
2018-03-07T10:16:06.306Z,56.89
2018-03-07T10:18:36.965Z,56.20
2018-03-07T10:21:06.728Z,55.69
2018-03-07T10:23:36.448Z,55.42
2018-03-07T10:26:06.264Z,55.30
2018-03-07T10:28:36.065Z,55.56
2018-03-07T10:31:05.910Z,55.67
2018-03-07T10:33:35.657Z,56.11
2018-03-07T10:36:05.522Z,56.52
2018-03-07T10:38:35.465Z,56.04
2018-03-07T10:41:05.320Z,56.45
2018-03-07T10:43:35.200Z,56.69
2018-03-07T10:46:05.104Z,56.83
2018-03-07T10:48:34.855Z,56.94
2018-03-07T10:51:04.660Z,57.44
2018-03-07T10:53:35.197Z,57.80
2018-03-07T10:56:05.780Z,57.70
2018-03-07T10:58:35.569Z,57.94
2018-03-07T11:01:05.374Z,58.08
2018-03-07T11:03:35.157Z,58.21
2018-03-07T11:06:05.120Z,58.85
2018-03-07T11:08:34.985Z,59.06
2018-03-07T11:11:04.925Z,59.08
2018-03-07T11:13:34.683Z,59.22
2018-03-07T11:16:04.523Z,59.14
2018-03-07T11:18:35.038Z,58.89
2018-03-07T11:21:04.837Z,58.78
2018-03-07T11:23:34.636Z,58.25
2018-03-07T11:26:04.725Z,57.83
2018-03-07T11:28:34.557Z,57.63
2018-03-07T11:31:04.461Z,57.32
2018-03-07T11:33:34.217Z,58.09
2018-03-07T11:36:04.851Z,57.13
2018-03-07T11:38:34.634Z,57.18
2018-03-07T11:41:04.400Z,57.44
2018-03-07T11:43:34.933Z,56.87
2018-03-07T11:46:04.795Z,56.92
2018-03-07T11:48:34.576Z,56.62
2018-03-07T11:51:04.575Z,56.21
2018-03-07T11:53:34.481Z,56.15
2018-03-07T11:56:04.262Z,56.97
2018-03-07T11:58:34.016Z,57.38
2018-03-07T12:01:03.785Z,57.92
2018-03-07T12:03:33.706Z,58.78
2018-03-07T12:06:03.506Z,59.30
2018-03-07T12:08:33.212Z,59.55
2018-03-07T12:11:03.053Z,60.00
2018-03-07T12:13:32.825Z,60.62
2018-03-07T12:16:03.431Z,60.98
2018-03-07T12:18:33.157Z,61.87
2018-03-07T12:21:02.946Z,63.21
2018-03-07T12:23:32.663Z,63.92
2018-03-07T12:26:02.525Z,64.62
2018-03-07T12:28:32.286Z,65.18
2018-03-07T12:31:02.780Z,65.20
2018-03-07T12:33:32.512Z,65.42
2018-03-07T12:36:02.217Z,66.17
2018-03-07T12:38:32.025Z,66.44
2018-03-07T12:41:01.779Z,66.84
2018-03-07T12:43:31.620Z,66.91
2018-03-07T12:46:02.146Z,67.21
2018-03-07T12:48:31.861Z,67.74
2018-03-07T12:51:01.635Z,67.69
2018-03-07T12:53:31.368Z,67.41
2018-03-07T12:56:01.141Z,67.19
2018-03-07T12:58:30.949Z,66.56
2018-03-07T13:01:00.712Z,66.48
2018-03-07T13:03:30.385Z,66.23
2018-03-07T13:06:00.196Z,65.92
2018-03-07T13:08:29.906Z,64.96
2018-03-07T13:13:28.665Z,65.41
2018-03-07T13:15:58.447Z,65.70
2018-03-07T13:18:28.137Z,65.37
2018-03-07T13:20:57.924Z,65.01
2018-03-07T13:23:27.930Z,65.06
2018-03-07T13:25:57.742Z,64.92
2018-03-07T13:28:28.180Z,65.08
2018-03-07T13:30:58.298Z,64.96
2018-03-07T13:33:29.025Z,64.95
2018-03-07T13:35:58.816Z,65.44
2018-03-07T13:38:28.588Z,65.68
2018-03-07T13:40:58.307Z,65.50
2018-03-07T13:43:28.203Z,65.38
2018-03-07T13:45:57.926Z,65.47
2018-03-07T13:48:27.653Z,65.08
2018-03-07T13:50:57.361Z,64.83
2018-03-07T13:53:27.179Z,64.64
2018-03-07T13:55:57.165Z,64.93
2018-03-07T13:58:27.025Z,64.39
2018-03-07T14:00:56.832Z,64.79
2018-03-07T14:03:26.714Z,64.86
2018-03-07T14:05:57.252Z,64.56
2018-03-07T14:08:27.748Z,64.31
2018-03-07T14:10:57.469Z,64.52
2018-03-07T14:13:27.208Z,63.93
2018-03-07T14:15:57.034Z,64.27
2018-03-07T14:18:26.847Z,64.28
2018-03-07T14:20:56.533Z,64.12
2018-03-07T14:23:26.391Z,63.97
2018-03-07T14:25:56.121Z,64.17
2018-03-07T14:28:25.888Z,64.43
2018-03-07T14:30:56.389Z,64.69
2018-03-07T14:33:26.118Z,64.70
2018-03-07T14:35:55.845Z,64.39
2018-03-07T14:38:25.648Z,64.55
2018-03-07T14:40:55.581Z,64.44
2018-03-07T14:43:25.432Z,63.98
2018-03-07T14:45:56.001Z,63.94
2018-03-07T14:48:25.707Z,64.15
2018-03-07T14:50:56.225Z,64.68
2018-03-07T14:53:25.968Z,64.57
2018-03-07T14:55:56.657Z,64.16
2018-03-07T14:58:26.405Z,64.39
2018-03-07T15:00:57.901Z,64.48
2018-03-07T15:03:28.504Z,64.60
2018-03-07T15:05:58.341Z,64.78
2018-03-07T15:08:28.204Z,65.05
2018-03-07T15:10:57.985Z,65.12
2018-03-07T15:13:27.746Z,65.25
2018-03-07T15:15:57.519Z,65.20
2018-03-07T15:18:27.304Z,65.22
2018-03-07T15:20:57.172Z,65.02
2018-03-07T15:23:27.019Z,64.78
2018-03-07T15:25:56.964Z,64.82
2018-03-07T15:28:26.734Z,64.93
2018-03-07T15:30:56.454Z,64.78
2018-03-07T15:33:26.236Z,64.85
2018-03-07T15:35:56.005Z,64.61
2018-03-07T15:38:25.792Z,64.89
2018-03-07T15:40:55.523Z,64.83
2018-03-07T15:43:25.349Z,64.88
2018-03-07T15:45:55.196Z,64.72
2018-03-07T15:48:25.229Z,64.72
2018-03-07T15:50:55.066Z,64.87
2018-03-07T15:53:25.543Z,64.49
2018-03-07T15:55:55.364Z,64.35
2018-03-07T15:58:25.210Z,64.05
2018-03-07T16:00:54.997Z,64.14
2018-03-07T16:03:25.538Z,64.04
2018-03-07T16:05:56.148Z,63.75
2018-03-07T16:08:25.870Z,63.62
2018-03-07T16:10:55.656Z,63.43
2018-03-07T16:13:25.410Z,64.21
2018-03-07T16:15:55.988Z,63.45
2018-03-07T16:18:26.491Z,63.38
2018-03-07T16:20:56.410Z,63.15
2018-03-07T16:23:26.104Z,63.09
2018-03-07T16:25:55.969Z,62.92
2018-03-07T16:28:25.748Z,62.78
2018-03-07T16:30:55.542Z,62.87
2018-03-07T16:33:26.307Z,62.74
2018-03-07T16:35:56.166Z,63.00
2018-03-07T16:38:25.903Z,63.12
2018-03-07T16:40:55.736Z,63.20
2018-03-07T16:43:25.712Z,63.56
2018-03-07T16:45:55.552Z,63.89
2018-03-07T16:48:25.665Z,64.09
2018-03-07T16:50:55.477Z,64.29
2018-03-07T16:53:25.408Z,64.40
2018-03-07T16:55:55.125Z,64.45
2018-03-07T16:58:24.927Z,64.46
2018-03-07T17:00:54.820Z,64.37
2018-03-07T17:03:24.569Z,64.55
2018-03-07T17:05:55.104Z,64.65
2018-03-07T17:08:24.856Z,64.15
2018-03-07T17:10:55.491Z,63.43
2018-03-07T17:13:26.052Z,63.83
2018-03-07T17:15:55.849Z,64.08
2018-03-07T17:18:25.688Z,65.30
2018-03-07T17:20:56.322Z,67.08
2018-03-07T17:23:26.856Z,67.57
2018-03-07T17:25:57.608Z,68.61
2018-03-07T17:28:28.260Z,69.54
2018-03-07T17:30:58.076Z,70.50
2018-03-07T17:33:28.551Z,70.65
2018-03-07T17:35:58.299Z,71.60
2018-03-07T17:38:28.020Z,72.26
2018-03-07T17:40:57.748Z,72.54
2018-03-07T17:43:28.345Z,72.93
2018-03-07T17:45:58.131Z,73.36
2018-03-07T17:48:27.833Z,73.56
2018-03-07T17:50:57.622Z,73.88
2018-03-07T17:53:27.397Z,74.16
2018-03-07T17:55:57.227Z,74.40
2018-03-07T17:58:27.738Z,74.56
2018-03-07T18:00:57.530Z,74.88
2018-03-07T18:03:27.255Z,74.68
2018-03-07T18:05:57.093Z,74.48
2018-03-07T18:08:26.870Z,74.37
2018-03-07T18:10:57.871Z,74.13
2018-03-07T18:13:27.717Z,73.68
2018-03-07T18:15:57.583Z,73.28
2018-03-07T18:18:27.430Z,72.84
2018-03-07T18:20:57.276Z,73.00
2018-03-07T18:23:27.088Z,72.87
2018-03-07T18:25:56.963Z,72.57
2018-03-07T18:28:27.062Z,72.82
2018-03-07T18:30:56.850Z,73.09
2018-03-07T18:33:26.754Z,73.34
2018-03-07T18:35:57.326Z,73.25
2018-03-07T18:38:27.116Z,73.19
2018-03-07T18:40:57.607Z,73.44
2018-03-07T18:43:27.546Z,73.73
2018-03-07T18:45:57.261Z,74.00
2018-03-07T18:48:27.088Z,74.02
2018-03-07T18:50:56.884Z,74.10
2018-03-07T18:53:26.616Z,73.75
2018-03-07T18:55:56.405Z,74.00
2018-03-07T18:58:26.193Z,74.03
2018-03-07T19:00:56.031Z,75.11
2018-03-07T19:03:25.748Z,73.42
2018-03-07T19:05:55.521Z,73.48
2018-03-07T19:08:25.285Z,73.75
2018-03-07T19:10:55.159Z,74.21
2018-03-07T19:13:24.906Z,74.44
2018-03-07T19:15:55.990Z,73.97
2018-03-07T19:18:25.784Z,74.16
2018-03-07T19:20:55.563Z,74.00
2018-03-07T19:23:26.128Z,73.89
2018-03-07T19:25:56.021Z,74.15
2018-03-07T19:28:26.587Z,74.74
2018-03-07T19:30:56.492Z,74.86
2018-03-07T19:33:26.983Z,75.00
2018-03-07T19:35:56.766Z,75.14
2018-03-07T19:38:26.568Z,74.99
2018-03-07T19:40:57.158Z,75.34
2018-03-07T19:43:26.979Z,75.64
2018-03-07T19:45:57.085Z,75.85
2018-03-07T19:48:26.795Z,76.20
2018-03-07T19:50:57.344Z,76.63
2018-03-07T19:53:27.242Z,77.04
2018-03-07T19:55:57.051Z,77.43
2018-03-07T19:58:26.960Z,77.59
2018-03-07T20:00:56.679Z,77.98
2018-03-07T20:03:26.494Z,78.03
2018-03-07T20:05:56.247Z,77.92
2018-03-07T20:08:26.121Z,78.03
2018-03-07T20:10:55.933Z,77.67
2018-03-07T20:13:25.695Z,77.73
2018-03-07T20:15:55.453Z,77.75
2018-03-07T20:18:25.201Z,77.85
2018-03-07T20:20:55.777Z,78.15
2018-03-07T20:23:25.657Z,78.18
2018-03-07T20:25:56.291Z,78.10
2018-03-07T20:28:26.023Z,78.34
2018-03-07T20:30:56.671Z,78.32
2018-03-07T20:33:27.667Z,78.50
2018-03-07T20:35:57.407Z,78.51
2018-03-07T20:38:27.996Z,78.45
2018-03-07T20:40:58.340Z,78.72
2018-03-07T20:43:28.128Z,78.76
2018-03-07T20:45:57.897Z,78.73
2018-03-07T20:48:27.836Z,78.65
2018-03-07T20:50:57.676Z,78.69
2018-03-07T20:53:27.500Z,78.93
2018-03-07T20:55:57.269Z,79.03
2018-03-07T20:58:28.128Z,78.99
2018-03-07T21:00:58.683Z,79.17
2018-03-07T21:03:28.489Z,79.17
2018-03-07T21:05:58.204Z,79.32
2018-03-07T21:08:29.136Z,78.96
2018-03-07T21:10:58.899Z,77.99
2018-03-07T21:13:28.873Z,78.37
2018-03-07T21:15:58.783Z,78.63
2018-03-07T21:18:29.020Z,78.62
2018-03-07T21:20:58.784Z,79.17
2018-03-07T21:23:29.355Z,79.31
2018-03-07T21:25:59.127Z,78.84
2018-03-07T21:28:28.851Z,78.49
2018-03-07T21:30:58.727Z,79.44
2018-03-07T21:33:28.600Z,77.70
2018-03-07T21:35:58.783Z,77.60
2018-03-07T21:38:28.582Z,77.75
2018-03-07T21:40:59.132Z,77.66
2018-03-07T21:43:29.773Z,77.70
2018-03-07T21:46:00.319Z,77.72
2018-03-07T21:48:30.884Z,77.72
2018-03-07T21:51:01.528Z,77.89
2018-03-07T21:53:31.387Z,78.04
2018-03-07T21:56:01.149Z,78.26
2018-03-07T21:58:31.833Z,78.27
2018-03-07T22:01:01.582Z,78.44
2018-03-07T22:03:31.463Z,78.35
2018-03-07T22:06:01.466Z,77.96
2018-03-07T22:08:32.020Z,78.13
2018-03-07T22:11:01.748Z,78.48
2018-03-07T22:13:31.774Z,78.73
2018-03-07T22:16:01.612Z,78.13
2018-03-07T22:18:31.517Z,77.82
2018-03-07T22:21:01.322Z,78.27
2018-03-07T22:23:31.109Z,77.89
2018-03-07T22:26:00.912Z,77.80
2018-03-07T22:28:30.781Z,77.85
2018-03-07T22:31:00.862Z,77.32
2018-03-07T22:33:30.616Z,77.52
2018-03-07T22:36:00.388Z,77.70
2018-03-07T22:38:30.240Z,77.84
2018-03-07T22:41:00.090Z,77.74
2018-03-07T22:43:29.854Z,77.89
2018-03-07T22:46:00.355Z,78.22
2018-03-07T22:48:30.590Z,78.44
2018-03-07T22:51:00.412Z,78.18
2018-03-07T22:53:30.314Z,77.32
2018-03-07T22:56:00.208Z,77.54
2018-03-07T22:58:29.941Z,77.48
2018-03-07T23:00:59.702Z,77.56
2018-03-07T23:03:29.548Z,77.66
2018-03-07T23:05:59.273Z,77.58
2018-03-07T23:08:29.082Z,77.61
2018-03-07T23:10:58.831Z,77.13
2018-03-07T23:13:29.044Z,77.36
2018-03-07T23:15:59.030Z,77.06
2018-03-07T23:18:28.788Z,77.29
2018-03-07T23:20:58.606Z,77.36
2018-03-07T23:23:28.383Z,77.55
2018-03-07T23:25:58.094Z,77.66
2018-03-07T23:28:28.673Z,77.85
2018-03-07T23:30:58.487Z,77.75
2018-03-07T23:33:28.213Z,77.84
2018-03-07T23:35:58.017Z,78.35
2018-03-07T23:38:27.839Z,78.23
2018-03-07T23:40:58.334Z,78.26
2018-03-07T23:43:28.073Z,78.35
2018-03-07T23:45:57.834Z,78.31
2018-03-07T23:48:27.587Z,78.31
2018-03-07T23:50:57.298Z,78.71
2018-03-07T23:53:27.128Z,78.75
2018-03-07T23:55:56.848Z,78.35
2018-03-07T23:58:26.628Z,78.46
